Morris, Connecticut
Current Conditions -  °F | °C
As of 5:50 PM on Sunday 21 Dec 2014 (Local Time) from KOXC Reporting Station
Light Snow Light Snow  
Wind Chill: 27°   Ceiling: 500
Heat Index: 32°   Visibility: 2mi
Dew Point: 27°   Wind: 5mph
Humidity: 80%   Direction: 40°NE
Pressure: 30.29"   Gusts: NA
Location:  41.68°N, 73.2°W
Report Text: KOXC 212250Z 04004KT 2SM -SN OVC005 00/M03 A3029
Loading
Personal Weather Stations






























Interactive Weather Map New forecast layout! Learn more

10-Day Weather Forecast

Advertisements
Track Severe Weather on mobile